Monday, April 21, 2014
12:46 UTC
  |  Log In   |  Register Free
Airport Search:

Henderson Field Airport
(KACZ)

Henderson Field Airport Diagram
No Airport Diagram Available

FAA data valid effective April 3, 2014 until May 29, 2014 (unless otherwise noted).

 
 
 
 
 
 
 
 
 
 
 
 
 
 

Current Aviation Weather for Henderson Field Airport (KACZ)

The most recent METAR observation for KDPL was updated at: 1135 UTC
METAR Summary (Translated METAR)
KDPL
211135Z AUTO 36009KT 10SM SCT023 OVC040 09/05 A3012 RMK AO2 T00900050
KCTZ
(18.9 nm SW from KDPL)
211135Z AUTO 36005KT 10SM BKN012 09/06 A3013 RMK AO2 T00890056
TAF Summary (Translated TAF)
KGSB
(20.4 nm NE from KDPL)
2104/2210 02010G15KT 9999 OVC040 QNH3014INS BECMG 2114/2115 01010G15KT 9999 SCT030 QNH3007INS BECMG 2121/2122 35009KT 9999 SKC QNH3009INS TX23/2121Z TN08/2110Z
  Airport Weather Conditions for KACZ

Current weather conditions are
not available for ACZ


The nearest NOAA weather station
is at DPL, (17 nm NE from ACZ)
  
 Current Weather at DPL
48° F
Overcast
North winds at 10.4 mph
DPL NOAA Radar

Pressure: 30.12 in
Humidity: 76%
Wind: North at 10.4 MPH (9 KT)
Dew Point: 41.0°F
Visibility: 10.00 mi


Airport Weather Forecast for KACZ

Translated METAR and TAF for KDPL
Translated METAR for KDPL (1246 UTC 21 April 2014)
found at http://aviationweather.gov/adds/metars/
 
METAR text: KDPL 211235Z AUTO 01008G15KT 10SM SCT015 SCT023 SCT040 11/06 A3012 RMK AO2 T01090063
Conditions at: KDPL (KENANSVILLE/DUPL, NC, US) observed 1235 UTC 21 April 2014
Temperature: 10.9°C (52°F)
Dewpoint: 6.3°C (43°F) [RH = 73%]
Pressure (altimeter): 30.12 inches Hg (1020.1 mb)
Winds: from the N (10 degrees) at 9 MPH (8 knots; 4.2 m/s)
gusting to 17 MPH (15 knots; 7.8 m/s)
Visibility: 10 or more miles (16+ km)
Ceiling: at least 12,000 feet AGL
Clouds: scattered clouds at 1500 feet AGL
scattered clouds at 2300 feet AGL
scattered clouds at 4000 feet AGL
Weather: automated observation with no human augmentation;
there may or may not be significant weather present at this time
Translated TAF for KDPL

There is no translated TAF available for this airport

Find All Airport Services Find A Hotel Find A Rental Car Find A Golf Course Find A Restaurant $100 Hamburger



FBO's on the Field
FBO Company Facility Photos Services Transportation Aviation Fuel Prices: Prices include tax
Catering Weather Repair Courtesy Rental Type 100LL JetA JetA+ MOGAS 8087
 
Henderson Field

This FBO has not yet been rated
FS:Phillips66
Last Updated: Mar-24
Login to update fuel prices
SS:
Contact Henderson FieldMore FBO Information
 
Add another FBO Facility Photos Catering Weather Repair Courtesy Rental Type 100LL JetA JetA+ MOGAS 8087
Services Transportation Aviation Fuel Prices: Prices include tax


GlobalAir.com Airport Resource Center model-print
model-print
model-print
model-print